Terminal Aerodrome Forecast
Issued by NWS Tulsa, OK

Home | Current Version | Previous Version | Text Only | Print | Product List | Glossary On
Versions: 1 2 3 4 5 6 7 8 9 10 11 12 13
679
FTUS44 KTSA 260520
TAFFSM
TAF
KFSM 260520Z 2606/2706 08005KT P6SM FEW060 BKN250
     FM261200 VRB06KT P6SM SCT045 BKN150 PROB30 2615/2621 4SM -TSRA
      BR BKN040CB
     FM262100 15006KT P6SM FEW050 BKN150
     FM270400 10003KT P6SM BKN150=

USA.gov is the U.S. government's official web portal to all federal, state and local government web resources and services.